sensor_id;sensor_type;location;lat;lon;timestamp;pressure;altitude;pressure_sealevel;temperature;humidity
18201;BME280;9226;47.858;9.594;2024-03-08T00:00:11;94952.91;;;2.14;84.42
18201;BME280;9226;47.858;9.594;2024-03-08T00:02:40;94948.88;;;2.25;83.67
18201;BME280;9226;47.858;9.594;2024-03-08T00:05:06;94952.41;;;2.24;83.80
18201;BME280;9226;47.858;9.594;2024-03-08T00:07:37;94946.50;;;2.20;83.60
18201;BME280;9226;47.858;9.594;2024-03-08T00:10:06;94960.59;;;2.17;83.62
18201;BME280;9226;47.858;9.594;2024-03-08T00:12:39;94965.59;;;2.22;83.37
18201;BME280;9226;47.858;9.594;2024-03-08T00:15:15;94955.19;;;2.21;83.23
18201;BME280;9226;47.858;9.594;2024-03-08T00:17:42;94959.59;;;2.20;83.25
18201;BME280;9226;47.858;9.594;2024-03-08T00:20:07;94955.94;;;2.23;83.08
18201;BME280;9226;47.858;9.594;2024-03-08T00:22:36;94951.75;;;2.20;82.87
18201;BME280;9226;47.858;9.594;2024-03-08T00:25:06;94950.06;;;2.19;82.58
18201;BME280;9226;47.858;9.594;2024-03-08T00:27:35;94947.19;;;2.08;83.14
18201;BME280;9226;47.858;9.594;2024-03-08T00:30:00;94944.56;;;2.08;83.10
18201;BME280;9226;47.858;9.594;2024-03-08T00:32:26;94946.38;;;2.07;83.13
18201;BME280;9226;47.858;9.594;2024-03-08T00:34:53;94941.97;;;2.08;82.85
18201;BME280;9226;47.858;9.594;2024-03-08T00:37:20;94926.78;;;1.98;83.36
18201;BME280;9226;47.858;9.594;2024-03-08T00:39:45;94934.44;;;2.02;83.34
18201;BME280;9226;47.858;9.594;2024-03-08T00:42:10;94935.88;;;1.91;83.80
18201;BME280;9226;47.858;9.594;2024-03-08T00:44:36;94937.56;;;1.92;83.68
18201;BME280;9226;47.858;9.594;2024-03-08T00:47:01;94934.03;;;1.93;83.60
18201;BME280;9226;47.858;9.594;2024-03-08T00:49:28;94935.22;;;1.88;83.58
18201;BME280;9226;47.858;9.594;2024-03-08T00:51:53;94936.41;;;1.82;84.01
18201;BME280;9226;47.858;9.594;2024-03-08T00:54:19;94936.25;;;1.85;83.86
18201;BME280;9226;47.858;9.594;2024-03-08T00:56:44;94927.03;;;1.78;84.34
18201;BME280;9226;47.858;9.594;2024-03-08T00:59:11;94925.94;;;1.82;83.80
18201;BME280;9226;47.858;9.594;2024-03-08T01:01:36;94924.59;;;1.75;84.15
18201;BME280;9226;47.858;9.594;2024-03-08T01:04:01;94916.50;;;1.79;83.63
18201;BME280;9226;47.858;9.594;2024-03-08T01:06:27;94916.66;;;1.76;83.84
18201;BME280;9226;47.858;9.594;2024-03-08T01:08:52;94913.38;;;1.73;83.96
18201;BME280;9226;47.858;9.594;2024-03-08T01:11:18;94912.25;;;1.77;83.74
18201;BME280;9226;47.858;9.594;2024-03-08T01:13:44;94908.81;;;1.60;84.55
18201;BME280;9226;47.858;9.594;2024-03-08T01:16:12;94908.63;;;1.63;84.36
18201;BME280;9226;47.858;9.594;2024-03-08T01:18:37;94906.59;;;1.69;84.03
18201;BME280;9226;47.858;9.594;2024-03-08T01:21:03;94905.69;;;1.70;84.00
18201;BME280;9226;47.858;9.594;2024-03-08T01:23:29;94901.78;;;1.61;84.28
18201;BME280;9226;47.858;9.594;2024-03-08T01:25:54;94897.84;;;1.54;84.73
18201;BME280;9226;47.858;9.594;2024-03-08T01:28:25;94893.28;;;1.57;84.51
18201;BME280;9226;47.858;9.594;2024-03-08T01:30:51;94891.00;;;1.51;84.40
18201;BME280;9226;47.858;9.594;2024-03-08T01:33:22;94888.88;;;1.58;84.41
18201;BME280;9226;47.858;9.594;2024-03-08T01:35:48;94883.41;;;1.47;85.12
18201;BME280;9226;47.858;9.594;2024-03-08T01:38:13;94875.81;;;1.42;85.19
18201;BME280;9226;47.858;9.594;2024-03-08T01:40:39;94875.22;;;1.37;85.68
18201;BME280;9226;47.858;9.594;2024-03-08T01:43:19;94866.81;;;1.32;85.61
18201;BME280;9226;47.858;9.594;2024-03-08T01:45:45;94874.81;;;1.29;86.04
18201;BME280;9226;47.858;9.594;2024-03-08T01:48:10;94862.31;;;1.34;85.91
18201;BME280;9226;47.858;9.594;2024-03-08T01:50:37;94862.16;;;1.37;85.72
18201;BME280;9226;47.858;9.594;2024-03-08T01:53:05;94864.69;;;1.38;85.32
18201;BME280;9226;47.858;9.594;2024-03-08T01:55:30;94858.25;;;1.28;85.70
18201;BME280;9226;47.858;9.594;2024-03-08T01:57:55;94858.53;;;1.23;86.11
18201;BME280;9226;47.858;9.594;2024-03-08T02:00:21;94854.47;;;1.34;85.43
18201;BME280;9226;47.858;9.594;2024-03-08T02:02:49;94851.72;;;1.37;85.01
18201;BME280;9226;47.858;9.594;2024-03-08T02:05:15;94852.72;;;1.34;85.12
18201;BME280;9226;47.858;9.594;2024-03-08T02:07:44;94841.59;;;1.31;85.32
18201;BME280;9226;47.858;9.594;2024-03-08T02:10:10;94841.91;;;1.24;85.73
18201;BME280;9226;47.858;9.594;2024-03-08T02:12:37;94840.84;;;1.29;85.11
18201;BME280;9226;47.858;9.594;2024-03-08T02:15:03;94843.78;;;1.22;85.50
18201;BME280;9226;47.858;9.594;2024-03-08T02:17:29;94839.78;;;1.15;85.73
18201;BME280;9226;47.858;9.594;2024-03-08T02:19:55;94840.75;;;1.14;86.17
18201;BME280;9226;47.858;9.594;2024-03-08T02:22:21;94826.66;;;1.17;85.75
18201;BME280;9226;47.858;9.594;2024-03-08T02:24:47;94829.59;;;1.11;86.33
18201;BME280;9226;47.858;9.594;2024-03-08T02:27:13;94827.06;;;1.09;86.45
18201;BME280;9226;47.858;9.594;2024-03-08T02:29:39;94827.22;;;1.06;86.63
18201;BME280;9226;47.858;9.594;2024-03-08T02:32:06;94820.16;;;1.08;86.28
18201;BME280;9226;47.858;9.594;2024-03-08T02:34:31;94821.56;;;0.98;87.25
18201;BME280;9226;47.858;9.594;2024-03-08T02:36:57;94821.09;;;1.07;86.66
18201;BME280;9226;47.858;9.594;2024-03-08T02:39:22;94823.19;;;1.00;87.08
18201;BME280;9226;47.858;9.594;2024-03-08T02:41:47;94819.31;;;1.07;86.66
18201;BME280;9226;47.858;9.594;2024-03-08T02:44:13;94815.78;;;1.08;86.51
18201;BME280;9226;47.858;9.594;2024-03-08T02:46:38;94810.88;;;1.02;86.85
18201;BME280;9226;47.858;9.594;2024-03-08T02:49:04;94813.56;;;1.01;86.75
18201;BME280;9226;47.858;9.594;2024-03-08T02:51:29;94807.59;;;0.99;86.65
18201;BME280;9226;47.858;9.594;2024-03-08T02:53:56;94813.75;;;0.98;86.88
18201;BME280;9226;47.858;9.594;2024-03-08T02:56:21;94809.53;;;0.95;86.63
18201;BME280;9226;47.858;9.594;2024-03-08T02:58:47;94807.69;;;0.97;86.56
18201;BME280;9226;47.858;9.594;2024-03-08T03:01:14;94803.44;;;0.95;86.78
18201;BME280;9226;47.858;9.594;2024-03-08T03:03:40;94798.72;;;0.85;87.50
18201;BME280;9226;47.858;9.594;2024-03-08T03:06:06;94793.69;;;0.82;87.88
18201;BME280;9226;47.858;9.594;2024-03-08T03:08:32;94792.59;;;0.86;87.99
18201;BME280;9226;47.858;9.594;2024-03-08T03:10:58;94793.69;;;0.82;88.15
18201;BME280;9226;47.858;9.594;2024-03-08T03:13:23;94793.84;;;0.79;88.11
18201;BME280;9226;47.858;9.594;2024-03-08T03:15:49;94792.00;;;0.81;88.23
18201;BME280;9226;47.858;9.594;2024-03-08T03:18:14;94793.84;;;0.79;88.37
18201;BME280;9226;47.858;9.594;2024-03-08T03:20:41;94790.88;;;0.85;88.05
18201;BME280;9226;47.858;9.594;2024-03-08T03:23:10;94796.09;;;0.85;87.97
18201;BME280;9226;47.858;9.594;2024-03-08T03:25:39;94791.59;;;0.89;87.42
18201;BME280;9226;47.858;9.594;2024-03-08T03:28:06;94794.88;;;0.93;87.27
18201;BME280;9226;47.858;9.594;2024-03-08T03:30:33;94789.06;;;0.87;87.45
18201;BME280;9226;47.858;9.594;2024-03-08T03:32:59;94788.28;;;0.85;87.82
18201;BME280;9226;47.858;9.594;2024-03-08T03:35:27;94791.25;;;0.79;88.53
18201;BME280;9226;47.858;9.594;2024-03-08T03:37:52;94780.00;;;0.77;88.64
18201;BME280;9226;47.858;9.594;2024-03-08T03:40:34;94775.81;;;0.75;88.95
18201;BME280;9226;47.858;9.594;2024-03-08T03:43:00;94785.22;;;0.77;89.40
18201;BME280;9226;47.858;9.594;2024-03-08T03:45:25;94786.41;;;0.71;89.86
18201;BME280;9226;47.858;9.594;2024-03-08T03:47:51;94779.34;;;0.74;90.09
18201;BME280;9226;47.858;9.594;2024-03-08T03:50:18;94777.47;;;0.76;90.69
18201;BME280;9226;47.858;9.594;2024-03-08T03:52:45;94777.41;;;0.77;90.70
18201;BME280;9226;47.858;9.594;2024-03-08T03:55:11;94779.69;;;0.83;90.77
18201;BME280;9226;47.858;9.594;2024-03-08T03:57:37;94777.31;;;0.79;91.52
18201;BME280;9226;47.858;9.594;2024-03-08T04:00:03;94771.09;;;0.81;91.72
18201;BME280;9226;47.858;9.594;2024-03-08T04:02:29;94772.09;;;0.95;91.28
18201;BME280;9226;47.858;9.594;2024-03-08T04:04:55;94773.13;;;0.92;91.80
18201;BME280;9226;47.858;9.594;2024-03-08T04:07:21;94773.63;;;0.99;91.68
18201;BME280;9226;47.858;9.594;2024-03-08T04:09:47;94773.72;;;1.13;90.85
18201;BME280;9226;47.858;9.594;2024-03-08T04:12:12;94776.66;;;1.07;91.41
18201;BME280;9226;47.858;9.594;2024-03-08T04:14:40;94767.06;;;1.07;91.59
18201;BME280;9226;47.858;9.594;2024-03-08T04:17:06;94768.09;;;1.21;90.95
18201;BME280;9226;47.858;9.594;2024-03-08T04:19:31;94777.16;;;1.30;90.62
18201;BME280;9226;47.858;9.594;2024-03-08T04:21:57;94764.88;;;1.32;90.34
18201;BME280;9226;47.858;9.594;2024-03-08T04:24:22;94765.28;;;1.40;89.91
18201;BME280;9226;47.858;9.594;2024-03-08T04:26:47;94764.38;;;1.41;89.63
18201;BME280;9226;47.858;9.594;2024-03-08T04:29:13;94767.91;;;1.40;90.21
18201;BME280;9226;47.858;9.594;2024-03-08T04:31:40;94762.69;;;1.40;89.83
18201;BME280;9226;47.858;9.594;2024-03-08T04:34:05;94760.63;;;1.45;89.78
18201;BME280;9226;47.858;9.594;2024-03-08T04:36:30;94753.03;;;1.56;89.27
18201;BME280;9226;47.858;9.594;2024-03-08T04:38:56;94760.22;;;1.53;88.93
18201;BME280;9226;47.858;9.594;2024-03-08T04:41:21;94752.69;;;1.62;88.88
18201;BME280;9226;47.858;9.594;2024-03-08T04:43:48;94757.25;;;1.59;88.74
18201;BME280;9226;47.858;9.594;2024-03-08T04:46:14;94757.59;;;1.53;88.62
18201;BME280;9226;47.858;9.594;2024-03-08T04:48:39;94755.59;;;1.42;88.75
18201;BME280;9226;47.858;9.594;2024-03-08T04:51:07;94754.34;;;1.33;89.60
18201;BME280;9226;47.858;9.594;2024-03-08T04:53:32;94752.63;;;1.48;89.33
18201;BME280;9226;47.858;9.594;2024-03-08T04:55:59;94752.19;;;1.56;88.97
18201;BME280;9226;47.858;9.594;2024-03-08T04:58:25;94751.31;;;1.41;89.30
18201;BME280;9226;47.858;9.594;2024-03-08T05:00:50;94753.13;;;1.39;89.61
18201;BME280;9226;47.858;9.594;2024-03-08T05:03:16;94750.03;;;1.32;90.13
18201;BME280;9226;47.858;9.594;2024-03-08T05:05:41;94757.38;;;1.25;90.44
18201;BME280;9226;47.858;9.594;2024-03-08T05:08:07;94754.75;;;1.25;90.51
18201;BME280;9226;47.858;9.594;2024-03-08T05:10:32;94755.28;;;1.16;91.03
18201;BME280;9226;47.858;9.594;2024-03-08T05:12:58;94746.19;;;1.23;91.09
18201;BME280;9226;47.858;9.594;2024-03-08T05:15:23;94744.13;;;1.44;89.87
18201;BME280;9226;47.858;9.594;2024-03-08T05:17:48;94742.47;;;1.58;89.57
18201;BME280;9226;47.858;9.594;2024-03-08T05:20:14;94748.06;;;1.52;89.57
18201;BME280;9226;47.858;9.594;2024-03-08T05:22:41;94742.16;;;1.48;89.91
18201;BME280;9226;47.858;9.594;2024-03-08T05:25:06;94752.00;;;1.59;89.51
18201;BME280;9226;47.858;9.594;2024-03-08T05:27:34;94740.13;;;1.53;89.55
18201;BME280;9226;47.858;9.594;2024-03-08T05:29:59;94738.84;;;1.60;89.08
18201;BME280;9226;47.858;9.594;2024-03-08T05:32:24;94744.19;;;1.59;89.22
18201;BME280;9226;47.858;9.594;2024-03-08T05:34:50;94745.97;;;1.58;89.44
18201;BME280;9226;47.858;9.594;2024-03-08T05:37:15;94736.06;;;1.63;89.05
18201;BME280;9226;47.858;9.594;2024-03-08T05:39:41;94734.97;;;1.68;88.92
18201;BME280;9226;47.858;9.594;2024-03-08T05:42:06;94740.63;;;1.60;89.22
18201;BME280;9226;47.858;9.594;2024-03-08T05:44:34;94735.25;;;1.63;89.46
18201;BME280;9226;47.858;9.594;2024-03-08T05:46:59;94738.84;;;1.60;89.16
18201;BME280;9226;47.858;9.594;2024-03-08T05:49:24;94735.66;;;1.55;89.75
18201;BME280;9226;47.858;9.594;2024-03-08T05:51:50;94736.91;;;1.64;89.47
18201;BME280;9226;47.858;9.594;2024-03-08T05:54:16;94736.97;;;1.62;89.20
18201;BME280;9226;47.858;9.594;2024-03-08T05:56:42;94731.41;;;1.69;89.11
18201;BME280;9226;47.858;9.594;2024-03-08T05:59:08;94729.53;;;1.71;88.89
18201;BME280;9226;47.858;9.594;2024-03-08T06:01:34;94732.41;;;1.82;88.91
18201;BME280;9226;47.858;9.594;2024-03-08T06:04:02;94731.88;;;1.75;88.72
18201;BME280;9226;47.858;9.594;2024-03-08T06:06:28;94727.53;;;1.76;88.74
18201;BME280;9226;47.858;9.594;2024-03-08T06:08:53;94735.16;;;1.65;89.27
18201;BME280;9226;47.858;9.594;2024-03-08T06:11:21;94730.22;;;1.74;89.12
18201;BME280;9226;47.858;9.594;2024-03-08T06:13:47;94721.34;;;1.77;88.98
18201;BME280;9226;47.858;9.594;2024-03-08T06:16:13;94725.03;;;1.58;89.27
18201;BME280;9226;47.858;9.594;2024-03-08T06:18:38;94726.91;;;1.71;89.25
18201;BME280;9226;47.858;9.594;2024-03-08T06:21:07;94719.25;;;1.37;90.65
18201;BME280;9226;47.858;9.594;2024-03-08T06:23:39;94731.53;;;1.51;90.35
18201;BME280;9226;47.858;9.594;2024-03-08T06:26:04;94729.50;;;1.56;90.36
18201;BME280;9226;47.858;9.594;2024-03-08T06:28:30;94728.41;;;1.60;89.89
18201;BME280;9226;47.858;9.594;2024-03-08T06:30:58;94730.75;;;1.65;89.80
18201;BME280;9226;47.858;9.594;2024-03-08T06:33:23;94726.75;;;1.74;89.49
18201;BME280;9226;47.858;9.594;2024-03-08T06:35:48;94725.56;;;1.79;89.22
18201;BME280;9226;47.858;9.594;2024-03-08T06:38:14;94728.09;;;1.81;88.75
18201;BME280;9226;47.858;9.594;2024-03-08T06:40:40;94730.88;;;1.78;88.63
18201;BME280;9226;47.858;9.594;2024-03-08T06:43:05;94732.22;;;1.85;88.30
18201;BME280;9226;47.858;9.594;2024-03-08T06:45:31;94731.66;;;1.94;88.18
18201;BME280;9226;47.858;9.594;2024-03-08T06:47:57;94732.78;;;1.90;87.99
18201;BME280;9226;47.858;9.594;2024-03-08T06:50:22;94736.63;;;1.69;88.75
18201;BME280;9226;47.858;9.594;2024-03-08T06:52:47;94732.97;;;1.87;88.28
18201;BME280;9226;47.858;9.594;2024-03-08T06:55:19;94737.84;;;1.93;88.22
18201;BME280;9226;47.858;9.594;2024-03-08T06:57:44;94736.88;;;1.94;88.02
18201;BME280;9226;47.858;9.594;2024-03-08T07:00:10;94746.44;;;1.95;87.73
18201;BME280;9226;47.858;9.594;2024-03-08T07:02:39;94734.09;;;1.97;88.13
18201;BME280;9226;47.858;9.594;2024-03-08T07:05:05;94739.13;;;1.86;87.75
18201;BME280;9226;47.858;9.594;2024-03-08T07:07:31;94727.66;;;1.89;88.18
18201;BME280;9226;47.858;9.594;2024-03-08T07:09:57;94730.44;;;1.86;88.02
18201;BME280;9226;47.858;9.594;2024-03-08T07:12:22;94727.72;;;1.87;87.85
18201;BME280;9226;47.858;9.594;2024-03-08T07:14:48;94731.44;;;1.83;87.99
18201;BME280;9226;47.858;9.594;2024-03-08T07:17:14;94725.28;;;1.84;88.42
18201;BME280;9226;47.858;9.594;2024-03-08T07:19:39;94720.16;;;1.83;88.42
18201;BME280;9226;47.858;9.594;2024-03-08T07:22:05;94713.66;;;1.74;87.96
18201;BME280;9226;47.858;9.594;2024-03-08T07:24:36;94722.00;;;1.50;89.02
18201;BME280;9226;47.858;9.594;2024-03-08T07:27:04;94723.31;;;1.73;88.78
18201;BME280;9226;47.858;9.594;2024-03-08T07:29:30;94730.63;;;1.83;88.19
18201;BME280;9226;47.858;9.594;2024-03-08T07:31:55;94720.78;;;1.72;87.83
18201;BME280;9226;47.858;9.594;2024-03-08T07:34:27;94724.63;;;1.50;88.28
18201;BME280;9226;47.858;9.594;2024-03-08T07:36:57;94723.69;;;1.51;88.86
18201;BME280;9226;47.858;9.594;2024-03-08T07:39:23;94724.88;;;1.61;89.10
18201;BME280;9226;47.858;9.594;2024-03-08T07:41:49;94724.09;;;1.59;88.85
18201;BME280;9226;47.858;9.594;2024-03-08T07:44:17;94720.63;;;1.59;88.93
18201;BME280;9226;47.858;9.594;2024-03-08T07:46:43;94722.25;;;1.61;88.88
18201;BME280;9226;47.858;9.594;2024-03-08T07:49:09;94721.13;;;1.66;89.20
18201;BME280;9226;47.858;9.594;2024-03-08T07:51:36;94715.00;;;1.81;88.69
18201;BME280;9226;47.858;9.594;2024-03-08T07:54:02;94712.69;;;1.91;88.87
18201;BME280;9226;47.858;9.594;2024-03-08T07:56:29;94720.84;;;2.01;88.22
18201;BME280;9226;47.858;9.594;2024-03-08T07:58:54;94709.09;;;2.08;87.29
18201;BME280;9226;47.858;9.594;2024-03-08T08:01:20;94712.34;;;2.26;87.24
18201;BME280;9226;47.858;9.594;2024-03-08T08:03:46;94713.78;;;2.31;87.15
18201;BME280;9226;47.858;9.594;2024-03-08T08:06:14;94715.06;;;2.39;86.14
18201;BME280;9226;47.858;9.594;2024-03-08T08:08:44;94711.59;;;2.09;85.41
18201;BME280;9226;47.858;9.594;2024-03-08T08:11:09;94719.72;;;2.05;86.04
18201;BME280;9226;47.858;9.594;2024-03-08T08:13:36;94717.19;;;2.03;86.44
18201;BME280;9226;47.858;9.594;2024-03-08T08:16:05;94718.06;;;2.18;86.35
18201;BME280;9226;47.858;9.594;2024-03-08T08:18:31;94713.19;;;2.12;87.31
18201;BME280;9226;47.858;9.594;2024-03-08T08:20:58;94714.22;;;2.09;86.61
18201;BME280;9226;47.858;9.594;2024-03-08T08:23:25;94703.09;;;2.06;86.83
18201;BME280;9226;47.858;9.594;2024-03-08T08:25:51;94707.31;;;2.23;86.12
18201;BME280;9226;47.858;9.594;2024-03-08T08:28:17;94700.69;;;2.17;86.36
18201;BME280;9226;47.858;9.594;2024-03-08T08:30:48;94698.25;;;1.99;86.33
18201;BME280;9226;47.858;9.594;2024-03-08T08:33:14;94701.03;;;1.96;86.67
18201;BME280;9226;47.858;9.594;2024-03-08T08:35:40;94696.00;;;2.08;86.65
18201;BME280;9226;47.858;9.594;2024-03-08T08:38:05;94689.34;;;2.02;87.03
18201;BME280;9226;47.858;9.594;2024-03-08T08:40:35;94682.75;;;2.11;87.41
18201;BME280;9226;47.858;9.594;2024-03-08T08:43:02;94685.72;;;2.05;86.87
18201;BME280;9226;47.858;9.594;2024-03-08T08:45:30;94687.59;;;2.03;86.85
18201;BME280;9226;47.858;9.594;2024-03-08T08:47:56;94685.72;;;2.33;87.04
18201;BME280;9226;47.858;9.594;2024-03-08T08:50:22;94685.06;;;2.44;86.33
18201;BME280;9226;47.858;9.594;2024-03-08T08:52:50;94684.59;;;2.52;85.62
18201;BME280;9226;47.858;9.594;2024-03-08T08:55:16;94686.00;;;2.72;85.80
18201;BME280;9226;47.858;9.594;2024-03-08T08:57:46;94683.78;;;2.51;85.91
18201;BME280;9226;47.858;9.594;2024-03-08T09:00:11;94682.59;;;2.70;85.76
18201;BME280;9226;47.858;9.594;2024-03-08T09:02:40;94676.41;;;2.85;85.68
18201;BME280;9226;47.858;9.594;2024-03-08T09:05:06;94669.63;;;2.96;85.26
18201;BME280;9226;47.858;9.594;2024-03-08T09:07:33;94669.56;;;3.24;84.37
18201;BME280;9226;47.858;9.594;2024-03-08T09:09:59;94676.03;;;3.19;83.79
18201;BME280;9226;47.858;9.594;2024-03-08T09:12:25;94674.72;;;3.26;83.53
18201;BME280;9226;47.858;9.594;2024-03-08T09:14:50;94667.78;;;3.25;82.97
18201;BME280;9226;47.858;9.594;2024-03-08T09:17:16;94670.84;;;3.32;82.14
18201;BME280;9226;47.858;9.594;2024-03-08T09:19:46;94670.94;;;3.30;82.13
18201;BME280;9226;47.858;9.594;2024-03-08T09:22:12;94662.34;;;3.28;81.73
18201;BME280;9226;47.858;9.594;2024-03-08T09:24:38;94669.28;;;3.29;82.42
18201;BME280;9226;47.858;9.594;2024-03-08T09:27:03;94668.41;;;3.29;82.20
18201;BME280;9226;47.858;9.594;2024-03-08T09:29:29;94667.34;;;3.18;81.71
18201;BME280;9226;47.858;9.594;2024-03-08T09:31:54;94663.22;;;2.87;82.54
18201;BME280;9226;47.858;9.594;2024-03-08T09:34:20;94658.72;;;2.89;82.40
18201;BME280;9226;47.858;9.594;2024-03-08T09:36:46;94663.03;;;2.90;82.21
18201;BME280;9226;47.858;9.594;2024-03-08T09:39:11;94662.38;;;2.86;83.21
18201;BME280;9226;47.858;9.594;2024-03-08T09:41:45;94657.75;;;3.04;83.02
18201;BME280;9226;47.858;9.594;2024-03-08T09:44:13;94653.63;;;3.00;82.93
18201;BME280;9226;47.858;9.594;2024-03-08T09:46:39;94654.63;;;2.85;83.66
18201;BME280;9226;47.858;9.594;2024-03-08T09:49:05;94646.88;;;3.11;83.78
18201;BME280;9226;47.858;9.594;2024-03-08T09:51:33;94648.97;;;3.46;83.14
18201;BME280;9226;47.858;9.594;2024-03-08T09:54:00;94637.56;;;3.59;82.61
18201;BME280;9226;47.858;9.594;2024-03-08T09:56:25;94642.63;;;3.75;81.71
18201;BME280;9226;47.858;9.594;2024-03-08T09:58:53;94629.28;;;3.78;81.54
18201;BME280;9226;47.858;9.594;2024-03-08T10:01:38;94627.28;;;3.95;80.98
18201;BME280;9226;47.858;9.594;2024-03-08T10:04:04;94619.41;;;3.95;80.62
18201;BME280;9226;47.858;9.594;2024-03-08T10:06:30;94619.84;;;4.02;79.82
18201;BME280;9226;47.858;9.594;2024-03-08T10:08:56;94624.56;;;3.96;80.10
18201;BME280;9226;47.858;9.594;2024-03-08T10:11:22;94616.66;;;4.22;80.45
18201;BME280;9226;47.858;9.594;2024-03-08T10:13:49;94620.25;;;4.34;80.26
18201;BME280;9226;47.858;9.594;2024-03-08T10:16:15;94618.88;;;4.41;79.03
18201;BME280;9226;47.858;9.594;2024-03-08T10:18:42;94615.69;;;4.62;78.15
18201;BME280;9226;47.858;9.594;2024-03-08T10:21:08;94611.19;;;4.51;77.77
18201;BME280;9226;47.858;9.594;2024-03-08T10:23:39;94611.63;;;4.45;77.68
18201;BME280;9226;47.858;9.594;2024-03-08T10:28:40;94605.06;;;4.63;76.60
18201;BME280;9226;47.858;9.594;2024-03-08T10:31:05;94610.06;;;4.79;76.77
18201;BME280;9226;47.858;9.594;2024-03-08T10:33:31;94613.41;;;4.81;76.03
18201;BME280;9226;47.858;9.594;2024-03-08T10:35:56;94605.81;;;4.89;75.87
18201;BME280;9226;47.858;9.594;2024-03-08T10:38:22;94597.03;;;4.78;75.88
18201;BME280;9226;47.858;9.594;2024-03-08T10:40:48;94598.03;;;4.88;76.55
18201;BME280;9226;47.858;9.594;2024-03-08T10:43:27;94598.38;;;4.83;75.97
18201;BME280;9226;47.858;9.594;2024-03-08T10:48:49;94591.88;;;5.24;75.15
18201;BME280;9226;47.858;9.594;2024-03-08T10:51:15;94592.38;;;5.30;74.45
18201;BME280;9226;47.858;9.594;2024-03-08T10:53:41;94590.03;;;5.38;74.38
18201;BME280;9226;47.858;9.594;2024-03-08T10:56:07;94589.69;;;5.42;74.00
18201;BME280;9226;47.858;9.594;2024-03-08T10:58:35;94588.81;;;5.77;74.77
18201;BME280;9226;47.858;9.594;2024-03-08T11:01:02;94588.53;;;6.05;73.68
18201;BME280;9226;47.858;9.594;2024-03-08T11:06:15;94582.56;;;6.37;72.40
18201;BME280;9226;47.858;9.594;2024-03-08T11:08:42;94568.88;;;6.54;70.82
18201;BME280;9226;47.858;9.594;2024-03-08T11:11:27;94570.19;;;6.71;70.16
18201;BME280;9226;47.858;9.594;2024-03-08T11:13:55;94566.69;;;7.14;70.05
18201;BME280;9226;47.858;9.594;2024-03-08T11:19:01;94556.13;;;7.47;68.59
18201;BME280;9226;47.858;9.594;2024-03-08T11:21:31;94552.31;;;7.60;68.21
18201;BME280;9226;47.858;9.594;2024-03-08T11:24:07;94553.31;;;7.59;66.51
18201;BME280;9226;47.858;9.594;2024-03-08T11:26:33;94544.56;;;8.11;67.13
18201;BME280;9226;47.858;9.594;2024-03-08T11:34:30;94530.97;;;9.36;61.89
18201;BME280;9226;47.858;9.594;2024-03-08T11:36:55;94520.66;;;9.52;60.05
18201;BME280;9226;47.858;9.594;2024-03-08T11:39:22;94522.19;;;9.45;59.11
18201;BME280;9226;47.858;9.594;2024-03-08T11:41:49;94518.63;;;9.93;61.20
18201;BME280;9226;47.858;9.594;2024-03-08T11:44:14;94527.72;;;10.38;60.01
18201;BME280;9226;47.858;9.594;2024-03-08T11:46:42;94516.06;;;10.49;57.42
18201;BME280;9226;47.858;9.594;2024-03-08T11:49:12;94516.28;;;10.38;56.39
18201;BME280;9226;47.858;9.594;2024-03-08T11:51:37;94506.84;;;10.16;56.90
18201;BME280;9226;47.858;9.594;2024-03-08T11:54:03;94513.50;;;10.29;57.77
18201;BME280;9226;47.858;9.594;2024-03-08T11:56:28;94515.28;;;10.39;58.53
18201;BME280;9226;47.858;9.594;2024-03-08T11:58:56;94500.50;;;10.64;58.45
18201;BME280;9226;47.858;9.594;2024-03-08T12:01:25;94501.88;;;10.40;58.17
18201;BME280;9226;47.858;9.594;2024-03-08T12:03:55;94489.66;;;10.57;58.05
18201;BME280;9226;47.858;9.594;2024-03-08T12:06:24;94486.50;;;10.72;57.51
18201;BME280;9226;47.858;9.594;2024-03-08T12:08:49;94493.69;;;10.24;57.60
18201;BME280;9226;47.858;9.594;2024-03-08T12:11:17;94487.66;;;9.94;56.59
18201;BME280;9226;47.858;9.594;2024-03-08T12:13:44;94479.78;;;10.12;58.71
18201;BME280;9226;47.858;9.594;2024-03-08T12:16:12;94474.31;;;10.13;58.72
18201;BME280;9226;47.858;9.594;2024-03-08T12:18:38;94473.03;;;10.27;58.53
18201;BME280;9226;47.858;9.594;2024-03-08T12:21:11;94467.59;;;9.82;59.20
18201;BME280;9226;47.858;9.594;2024-03-08T12:23:39;94471.25;;;9.81;59.53
18201;BME280;9226;47.858;9.594;2024-03-08T12:26:17;94466.81;;;9.71;59.29
18201;BME280;9226;47.858;9.594;2024-03-08T12:28:43;94459.44;;;9.65;59.96
18201;BME280;9226;47.858;9.594;2024-03-08T12:31:11;94465.72;;;9.64;60.45
18201;BME280;9226;47.858;9.594;2024-03-08T12:33:53;94462.28;;;9.44;59.05
18201;BME280;9226;47.858;9.594;2024-03-08T12:36:20;94451.41;;;9.47;60.83
18201;BME280;9226;47.858;9.594;2024-03-08T12:38:46;94453.19;;;9.47;61.39
18201;BME280;9226;47.858;9.594;2024-03-08T12:41:18;94454.06;;;9.47;60.39
18201;BME280;9226;47.858;9.594;2024-03-08T12:43:45;94448.63;;;9.39;60.33
18201;BME280;9226;47.858;9.594;2024-03-08T12:46:19;94445.28;;;9.37;60.46
18201;BME280;9226;47.858;9.594;2024-03-08T12:48:46;94443.34;;;9.19;60.46
18201;BME280;9226;47.858;9.594;2024-03-08T12:51:17;94442.09;;;9.14;61.28
18201;BME280;9226;47.858;9.594;2024-03-08T12:53:44;94439.06;;;8.99;61.43
18201;BME280;9226;47.858;9.594;2024-03-08T12:56:10;94422.91;;;8.82;62.13
18201;BME280;9226;47.858;9.594;2024-03-08T12:58:36;94419.56;;;8.90;63.08
18201;BME280;9226;47.858;9.594;2024-03-08T13:01:04;94419.84;;;8.77;63.29
18201;BME280;9226;47.858;9.594;2024-03-08T13:03:32;94413.44;;;8.90;63.74
18201;BME280;9226;47.858;9.594;2024-03-08T13:05:59;94413.72;;;8.86;64.10
18201;BME280;9226;47.858;9.594;2024-03-08T13:08:25;94422.91;;;8.92;64.06
18201;BME280;9226;47.858;9.594;2024-03-08T13:10:53;94422.78;;;8.84;64.15
18201;BME280;9226;47.858;9.594;2024-03-08T13:13:19;94414.69;;;8.85;63.55
18201;BME280;9226;47.858;9.594;2024-03-08T13:15:44;94411.19;;;8.95;64.13
18201;BME280;9226;47.858;9.594;2024-03-08T13:18:10;94413.59;;;8.68;63.01
18201;BME280;9226;47.858;9.594;2024-03-08T13:20:36;94402.31;;;8.86;64.53
18201;BME280;9226;47.858;9.594;2024-03-08T13:23:05;94403.00;;;8.59;64.63
18201;BME280;9226;47.858;9.594;2024-03-08T13:25:31;94402.59;;;8.73;64.64
18201;BME280;9226;47.858;9.594;2024-03-08T13:27:57;94392.56;;;8.77;64.74
18201;BME280;9226;47.858;9.594;2024-03-08T13:30:24;94388.94;;;8.48;65.31
18201;BME280;9226;47.858;9.594;2024-03-08T13:32:52;94390.88;;;8.46;64.37
18201;BME280;9226;47.858;9.594;2024-03-08T13:35:18;94380.59;;;8.63;64.67